createdAt,value
2023-02-14T00:00:49.034Z,99.90
2023-02-14T00:03:16.067Z,99.90
2023-02-14T00:05:42.793Z,99.90
2023-02-14T00:08:09.481Z,99.90
2023-02-14T00:10:36.247Z,99.90
2023-02-14T00:13:03.314Z,99.90
2023-02-14T00:15:29.932Z,99.90
2023-02-14T00:17:59.730Z,99.90
2023-02-14T00:20:27.515Z,99.90
2023-02-14T00:22:54.327Z,99.90
2023-02-14T00:25:21.159Z,99.90
2023-02-14T00:27:47.914Z,99.90
2023-02-14T00:30:14.891Z,99.90
2023-02-14T00:32:42.496Z,99.90
2023-02-14T00:35:09.468Z,99.90
2023-02-14T00:37:36.662Z,99.90
2023-02-14T00:40:04.050Z,99.90
2023-02-14T00:42:30.798Z,99.90
2023-02-14T00:44:57.405Z,99.90
2023-02-14T00:47:24.077Z,99.90
2023-02-14T00:49:50.682Z,99.90
2023-02-14T00:52:17.322Z,99.90
2023-02-14T00:54:44.152Z,99.90
2023-02-14T00:57:10.862Z,99.90
2023-02-14T00:59:37.598Z,99.90
2023-02-14T01:02:04.373Z,99.90
2023-02-14T01:04:31.123Z,99.90
2023-02-14T01:06:57.782Z,99.90
2023-02-14T01:09:24.527Z,99.90
2023-02-14T01:11:51.261Z,99.90
2023-02-14T01:14:17.925Z,99.90
2023-02-14T01:16:44.657Z,99.90
2023-02-14T01:19:11.437Z,99.90
2023-02-14T01:21:38.129Z,99.90
2023-02-14T01:24:07.487Z,99.90
2023-02-14T01:26:34.983Z,99.90
2023-02-14T01:29:02.877Z,99.90
2023-02-14T01:31:32.388Z,99.90
2023-02-14T01:33:59.883Z,99.90
2023-02-14T01:36:28.534Z,99.90
2023-02-14T01:38:58.928Z,99.90
2023-02-14T01:41:27.921Z,99.90
2023-02-14T01:44:02.105Z,99.90
2023-02-14T01:46:31.979Z,99.90
2023-02-14T01:49:09.331Z,99.90
2023-02-14T01:51:40.979Z,99.90
2023-02-14T01:54:09.243Z,99.90
2023-02-14T01:56:41.822Z,99.90
2023-02-14T01:59:12.904Z,99.90
2023-02-14T02:01:41.408Z,99.90
2023-02-14T02:04:12.286Z,99.90
2023-02-14T02:06:43.920Z,99.90
2023-02-14T02:09:22.294Z,99.90
2023-02-14T02:11:49.095Z,99.90
2023-02-14T02:14:18.769Z,99.90
2023-02-14T02:16:51.393Z,99.90
2023-02-14T02:19:27.393Z,99.90
2023-02-14T02:22:12.837Z,99.90
2023-02-14T02:24:57.885Z,99.90
2023-02-14T02:27:38.489Z,99.90
2023-02-14T02:30:26.385Z,99.90
2023-02-14T02:33:18.917Z,99.90
2023-02-14T02:36:04.136Z,99.80
2023-02-14T02:38:33.782Z,99.70
2023-02-14T02:41:20.527Z,99.80
2023-02-14T02:44:03.794Z,99.90
2023-02-14T02:46:49.245Z,99.90
2023-02-14T02:50:02.131Z,99.90
2023-02-14T02:52:56.832Z,99.80
2023-02-14T02:55:57.594Z,99.80
2023-02-14T02:58:36.118Z,99.90
2023-02-14T03:01:09.333Z,99.90
2023-02-14T03:03:58.131Z,99.90
2023-02-14T03:06:24.869Z,99.90
2023-02-14T03:08:51.487Z,99.90
2023-02-14T03:11:18.466Z,99.90
2023-02-14T03:14:16.952Z,99.90
2023-02-14T03:17:39.887Z,99.90
2023-02-14T03:20:13.962Z,99.90
2023-02-14T03:22:58.056Z,99.90
2023-02-14T03:26:01.374Z,99.90
2023-02-14T03:28:43.165Z,99.90
2023-02-14T03:31:32.783Z,99.90
2023-02-14T03:34:07.654Z,99.90
2023-02-14T03:36:41.626Z,99.90
2023-02-14T03:39:17.581Z,99.90
2023-02-14T03:41:52.574Z,99.90
2023-02-14T03:44:25.719Z,99.90
2023-02-14T03:47:02.358Z,99.90
2023-02-14T03:49:34.724Z,99.90
2023-02-14T03:52:03.159Z,99.90
2023-02-14T03:54:32.738Z,99.90
2023-02-14T03:57:22.396Z,99.90
2023-02-14T03:59:49.595Z,99.90
2023-02-14T04:02:29.154Z,99.90
2023-02-14T04:04:58.508Z,99.90
2023-02-14T04:07:25.504Z,99.90
2023-02-14T04:09:52.565Z,99.90
2023-02-14T04:12:32.335Z,99.90
2023-02-14T04:15:04.302Z,99.90
2023-02-14T04:17:49.396Z,99.90
2023-02-14T04:20:16.188Z,99.90
2023-02-14T04:22:42.867Z,99.90
2023-02-14T04:25:09.554Z,99.90
2023-02-14T04:27:36.176Z,99.90
2023-02-14T04:30:03.642Z,99.90
2023-02-14T04:32:30.416Z,99.90
2023-02-14T04:34:57.141Z,99.90
2023-02-14T04:37:23.836Z,99.70
2023-02-14T04:39:50.452Z,99.40
2023-02-14T04:42:17.128Z,99.40
2023-02-14T04:44:43.882Z,99.60
2023-02-14T04:47:10.544Z,99.90
2023-02-14T04:49:37.295Z,99.90
2023-02-14T04:52:04.864Z,99.90
2023-02-14T04:54:31.899Z,99.80
2023-02-14T04:56:58.587Z,99.70
2023-02-14T04:59:25.373Z,99.50
2023-02-14T05:01:53.086Z,99.30
2023-02-14T05:04:19.860Z,99.20
2023-02-14T05:06:46.736Z,99.40
2023-02-14T05:09:13.441Z,99.70
2023-02-14T05:11:40.138Z,99.90
2023-02-14T05:14:06.863Z,99.90
2023-02-14T05:16:33.616Z,99.90
2023-02-14T05:19:00.238Z,99.90
2023-02-14T05:21:28.452Z,99.90
2023-02-14T05:23:55.117Z,99.90
2023-02-14T05:26:21.823Z,99.90
2023-02-14T05:28:48.488Z,99.90
2023-02-14T05:31:15.244Z,99.90
2023-02-14T05:33:42.012Z,99.90
2023-02-14T05:36:08.788Z,99.90
2023-02-14T05:38:35.397Z,99.90
2023-02-14T05:41:02.506Z,99.90
2023-02-14T05:43:30.326Z,99.90
2023-02-14T05:45:57.762Z,99.90
2023-02-14T05:48:24.736Z,99.90
2023-02-14T05:50:51.545Z,99.90
2023-02-14T05:53:18.272Z,99.90
2023-02-14T05:55:45.040Z,99.90
2023-02-14T05:58:12.477Z,99.90
2023-02-14T06:00:41.218Z,99.90
2023-02-14T06:03:08.404Z,99.90
2023-02-14T06:05:35.078Z,99.90
2023-02-14T06:08:01.817Z,99.90
2023-02-14T06:10:28.608Z,99.90
2023-02-14T06:12:55.398Z,99.90
2023-02-14T06:15:22.791Z,99.90
2023-02-14T06:17:56.615Z,99.90
2023-02-14T06:20:24.444Z,99.90
2023-02-14T06:22:51.974Z,99.90
2023-02-14T06:25:19.019Z,99.90
2023-02-14T06:27:48.258Z,99.90
2023-02-14T06:30:17.209Z,99.90
2023-02-14T06:32:44.328Z,99.90
2023-02-14T06:35:11.276Z,99.90
2023-02-14T06:37:38.798Z,99.90
2023-02-14T06:40:06.192Z,99.90
2023-02-14T06:42:32.860Z,99.90
2023-02-14T06:44:59.600Z,99.90
2023-02-14T06:47:26.296Z,99.90
2023-02-14T06:49:52.949Z,99.90
2023-02-14T06:52:19.588Z,99.90
2023-02-14T06:54:46.235Z,99.90
2023-02-14T06:57:14.591Z,99.90
2023-02-14T06:59:41.305Z,99.90
2023-02-14T07:02:12.302Z,99.90
2023-02-14T07:04:38.944Z,99.90
2023-02-14T07:07:05.786Z,99.90
2023-02-14T07:09:32.467Z,99.90
2023-02-14T07:11:59.209Z,99.90
2023-02-14T07:14:26.047Z,99.90
2023-02-14T07:16:52.726Z,99.90
2023-02-14T07:19:19.390Z,99.90
2023-02-14T07:21:46.031Z,99.90
2023-02-14T07:24:12.686Z,99.90
2023-02-14T07:26:39.372Z,99.90
2023-02-14T07:29:06.117Z,99.90
2023-02-14T07:31:32.991Z,99.90
2023-02-14T07:34:01.178Z,99.90
2023-02-14T07:36:27.897Z,99.90
2023-02-14T07:38:56.285Z,99.90
2023-02-14T07:41:23.472Z,99.90
2023-02-14T07:43:50.181Z,99.90
2023-02-14T07:46:17.553Z,99.90
2023-02-14T07:48:44.328Z,99.90
2023-02-14T07:51:11.299Z,99.90
2023-02-14T07:53:38.185Z,99.90
2023-02-14T07:56:05.010Z,99.90
2023-02-14T07:58:31.651Z,99.90
2023-02-14T08:00:58.698Z,99.90
2023-02-14T08:03:25.561Z,99.90
2023-02-14T08:05:57.272Z,99.90
2023-02-14T08:08:29.696Z,99.90
2023-02-14T08:10:56.908Z,99.90
2023-02-14T08:13:23.726Z,99.90
2023-02-14T08:16:05.817Z,99.90
2023-02-14T08:18:35.771Z,99.90
2023-02-14T08:21:03.571Z,99.90
2023-02-14T08:23:30.804Z,99.90
2023-02-14T08:25:57.832Z,99.90
2023-02-14T08:28:25.585Z,99.90
2023-02-14T08:30:53.477Z,99.90
2023-02-14T08:33:21.041Z,99.90
2023-02-14T08:35:47.820Z,99.90
2023-02-14T08:38:14.699Z,99.90
2023-02-14T08:40:41.621Z,99.90
2023-02-14T08:43:08.814Z,99.90
2023-02-14T08:45:38.599Z,99.90
2023-02-14T08:48:08.360Z,99.90
2023-02-14T08:50:36.066Z,99.90
2023-02-14T08:53:07.505Z,99.90
2023-02-14T08:55:34.938Z,99.90
2023-02-14T08:58:01.683Z,99.90
2023-02-14T09:00:28.619Z,99.90
2023-02-14T09:02:55.368Z,99.90
2023-02-14T09:05:23.361Z,99.90
2023-02-14T09:07:50.799Z,99.90
2023-02-14T09:10:18.628Z,99.90
2023-02-14T09:12:45.889Z,99.90
2023-02-14T09:15:12.816Z,99.90
2023-02-14T09:17:39.975Z,99.90
2023-02-14T09:20:08.829Z,99.60
2023-02-14T09:22:35.531Z,99.00
2023-02-14T09:25:02.502Z,98.50
2023-02-14T09:27:29.195Z,98.50
2023-02-14T09:29:55.934Z,98.90
2023-02-14T09:32:22.941Z,98.40
2023-02-14T09:35:08.107Z,98.10
2023-02-14T09:37:53.606Z,97.80
2023-02-14T09:40:20.891Z,97.60
2023-02-14T09:43:24.409Z,96.90
2023-02-14T09:45:55.062Z,96.70
2023-02-14T09:48:36.319Z,96.00
2023-02-14T09:51:07.386Z,95.60
2023-02-14T09:53:45.406Z,95.40
2023-02-14T09:56:50.680Z,95.40
2023-02-14T09:59:27.572Z,95.00
2023-02-14T10:02:16.998Z,95.30
2023-02-14T10:05:06.420Z,94.30
2023-02-14T10:08:03.116Z,93.70
2023-02-14T10:10:43.567Z,94.20
2023-02-14T10:13:19.019Z,94.70
2023-02-14T10:15:50.781Z,94.10
2023-02-14T10:18:34.833Z,94.40
2023-02-14T10:21:03.531Z,93.80
2023-02-14T10:23:42.480Z,94.00
2023-02-14T10:26:18.368Z,93.80
2023-02-14T10:28:49.122Z,93.80
2023-02-14T10:31:25.862Z,93.90
2023-02-14T10:33:59.886Z,93.30
2023-02-14T10:36:44.334Z,93.20
2023-02-14T10:39:16.971Z,93.10
2023-02-14T10:41:49.078Z,93.20
2023-02-14T10:44:21.400Z,92.90
2023-02-14T10:47:00.809Z,92.80
2023-02-14T10:49:52.382Z,92.90
2023-02-14T10:52:31.773Z,92.90
2023-02-14T10:55:01.940Z,92.60
2023-02-14T10:57:33.625Z,92.80
2023-02-14T11:00:10.954Z,92.80
2023-02-14T11:02:41.571Z,92.60
2023-02-14T11:05:27.803Z,92.70
2023-02-14T11:07:56.282Z,92.40
2023-02-14T11:10:32.986Z,92.10
2023-02-14T11:12:59.696Z,91.90
2023-02-14T11:15:39.532Z,92.00
2023-02-14T11:18:21.781Z,91.90
2023-02-14T11:21:02.892Z,91.70
2023-02-14T11:23:40.662Z,91.60
2023-02-14T11:26:17.262Z,91.70
2023-02-14T11:29:00.325Z,91.70
2023-02-14T11:31:38.586Z,91.50
2023-02-14T11:34:25.614Z,91.30
2023-02-14T11:36:52.498Z,91.20
2023-02-14T11:39:37.538Z,91.20
2023-02-14T11:42:11.868Z,90.80
2023-02-14T11:44:52.582Z,90.80
2023-02-14T11:47:24.997Z,90.80
2023-02-14T11:50:05.972Z,90.90
2023-02-14T11:52:39.478Z,91.00
2023-02-14T11:55:06.780Z,90.70
2023-02-14T11:57:37.808Z,90.70
2023-02-14T12:00:17.182Z,90.70
2023-02-14T12:02:45.144Z,90.40
2023-02-14T12:05:31.333Z,90.60
2023-02-14T12:08:08.474Z,90.90
2023-02-14T12:10:36.900Z,90.90
2023-02-14T12:13:09.424Z,90.80
2023-02-14T12:15:42.067Z,90.30
2023-02-14T12:18:29.060Z,90.30
2023-02-14T12:21:20.400Z,90.40
2023-02-14T12:23:56.193Z,90.30
2023-02-14T12:27:00.029Z,90.20
2023-02-14T12:29:47.230Z,90.20
2023-02-14T12:32:26.536Z,90.00
2023-02-14T12:35:07.185Z,90.20
2023-02-14T12:37:56.010Z,89.90
2023-02-14T12:40:58.573Z,90.10
2023-02-14T12:43:50.660Z,90.00
2023-02-14T12:46:39.126Z,89.50
2023-02-14T12:49:14.809Z,89.10
2023-02-14T12:51:50.418Z,89.10
2023-02-14T12:54:38.617Z,89.40
2023-02-14T12:57:19.018Z,88.60
2023-02-14T13:00:14.717Z,89.10
2023-02-14T13:03:02.933Z,90.00
2023-02-14T13:05:41.359Z,88.30
2023-02-14T13:08:20.291Z,88.70
2023-02-14T13:11:19.749Z,89.40
2023-02-14T13:14:04.568Z,89.00
2023-02-14T13:16:35.217Z,88.30
2023-02-14T13:19:10.780Z,89.20
2023-02-14T13:21:38.564Z,88.30
2023-02-14T13:24:15.023Z,88.20
2023-02-14T13:26:45.220Z,87.40
2023-02-14T13:29:19.375Z,86.60
2023-02-14T13:31:46.581Z,86.50
2023-02-14T13:34:19.141Z,86.00
2023-02-14T13:36:46.997Z,85.30
2023-02-14T13:39:36.112Z,84.80
2023-02-14T13:42:05.984Z,84.20
2023-02-14T13:44:52.692Z,83.50
2023-02-14T13:47:24.836Z,82.70
2023-02-14T13:50:20.583Z,82.60
2023-02-14T13:52:49.088Z,83.00
2023-02-14T13:55:44.942Z,81.80
2023-02-14T13:58:21.706Z,81.80
2023-02-14T14:00:53.443Z,83.20
2023-02-14T14:03:29.025Z,84.00
2023-02-14T14:06:01.737Z,83.40
2023-02-14T14:08:30.656Z,83.30
2023-02-14T14:11:00.486Z,82.60
2023-02-14T14:13:42.507Z,83.10
2023-02-14T14:16:27.409Z,82.70
2023-02-14T14:19:30.958Z,82.80
2023-02-14T14:22:07.017Z,82.60
2023-02-14T14:25:01.769Z,82.60
2023-02-14T14:27:40.211Z,83.60
2023-02-14T14:30:18.251Z,84.60
2023-02-14T14:32:45.431Z,84.00
2023-02-14T14:35:21.293Z,84.50
2023-02-14T14:37:51.089Z,85.30
2023-02-14T14:40:33.586Z,85.50
2023-02-14T14:43:06.886Z,85.70
2023-02-14T14:45:34.233Z,87.40
2023-02-14T14:48:08.786Z,87.80
2023-02-14T14:50:36.379Z,86.90
2023-02-14T14:53:11.742Z,86.70
2023-02-14T14:55:43.724Z,87.40
2023-02-14T14:58:31.477Z,87.70
2023-02-14T15:00:58.660Z,88.10
2023-02-14T15:03:28.142Z,88.00
2023-02-14T15:06:19.141Z,88.80
2023-02-14T15:08:48.169Z,89.90
2023-02-14T15:11:39.663Z,90.30
2023-02-14T15:14:15.528Z,89.50
2023-02-14T15:17:18.915Z,90.10
2023-02-14T15:19:50.880Z,90.50
2023-02-14T15:22:22.807Z,90.70
2023-02-14T15:24:50.481Z,91.20
2023-02-14T15:27:20.069Z,90.80
2023-02-14T15:30:00.381Z,90.80
2023-02-14T15:32:32.485Z,90.90
2023-02-14T15:35:03.111Z,90.90
2023-02-14T15:37:31.317Z,91.20
2023-02-14T15:39:59.372Z,91.50
2023-02-14T15:42:32.966Z,91.60
2023-02-14T15:45:22.764Z,91.40
2023-02-14T15:47:52.858Z,91.80
2023-02-14T15:50:27.755Z,92.10
2023-02-14T15:53:02.254Z,92.20
2023-02-14T15:55:30.746Z,92.60
2023-02-14T15:58:00.920Z,92.50
2023-02-14T16:00:28.085Z,92.30
2023-02-14T16:03:00.717Z,92.60
2023-02-14T16:05:27.795Z,92.90
2023-02-14T16:08:29.402Z,92.90
2023-02-14T16:11:14.602Z,93.20
2023-02-14T16:13:44.000Z,93.40
2023-02-14T16:16:17.353Z,93.50
2023-02-14T16:18:56.528Z,93.60
2023-02-14T16:21:24.802Z,93.80
2023-02-14T16:24:10.835Z,93.80
2023-02-14T16:26:41.477Z,94.00
2023-02-14T16:29:14.792Z,94.20
2023-02-14T16:32:14.089Z,94.70
2023-02-14T16:34:35.121Z,94.90
2023-02-14T16:37:17.683Z,94.90
2023-02-14T16:39:44.757Z,94.80
2023-02-14T16:42:18.574Z,94.80
2023-02-14T16:44:46.577Z,94.80
2023-02-14T16:47:15.026Z,94.80
2023-02-14T16:49:42.038Z,94.80
2023-02-14T16:52:23.882Z,94.90
2023-02-14T16:54:50.901Z,94.60
2023-02-14T16:57:30.369Z,94.90
2023-02-14T16:59:57.661Z,94.90
2023-02-14T17:02:28.610Z,94.80
2023-02-14T17:04:56.246Z,94.90
2023-02-14T17:07:23.454Z,94.80
2023-02-14T17:09:56.059Z,94.90
2023-02-14T17:12:27.325Z,95.40
2023-02-14T17:14:58.602Z,95.40
2023-02-14T17:17:25.744Z,95.50
2023-02-14T17:19:53.026Z,95.60
2023-02-14T17:22:20.308Z,96.30
2023-02-14T17:24:47.022Z,96.50
2023-02-14T17:27:14.050Z,96.50
2023-02-14T17:29:40.796Z,96.60
2023-02-14T17:32:11.734Z,96.90
2023-02-14T17:34:38.579Z,96.80
2023-02-14T17:37:05.266Z,96.40
2023-02-14T17:39:31.989Z,96.10
2023-02-14T17:41:59.340Z,95.60
2023-02-14T17:44:26.172Z,95.20
2023-02-14T17:46:54.580Z,94.90
2023-02-14T17:49:21.230Z,94.80
2023-02-14T17:51:47.897Z,94.60
2023-02-14T17:54:14.654Z,94.70
2023-02-14T17:56:41.380Z,94.70
2023-02-14T17:59:08.068Z,94.70
2023-02-14T18:01:36.306Z,94.50
2023-02-14T18:04:03.210Z,94.90
2023-02-14T18:06:29.966Z,95.20
2023-02-14T18:08:57.069Z,94.70
2023-02-14T18:11:26.181Z,94.50
2023-02-14T18:13:56.539Z,94.30
2023-02-14T18:16:24.809Z,94.30
2023-02-14T18:18:51.989Z,94.20
2023-02-14T18:21:21.021Z,94.40
2023-02-14T18:23:48.080Z,94.50
2023-02-14T18:26:18.046Z,94.20
2023-02-14T18:28:45.295Z,94.10
2023-02-14T18:31:15.863Z,94.00
2023-02-14T18:33:43.410Z,94.40
2023-02-14T18:36:12.965Z,94.10
2023-02-14T18:38:41.169Z,94.10
2023-02-14T18:41:10.478Z,94.00
2023-02-14T18:43:37.952Z,94.00
2023-02-14T18:46:05.682Z,94.50
2023-02-14T18:48:33.064Z,94.70
2023-02-14T18:51:13.427Z,94.70
2023-02-14T18:53:41.000Z,94.70
2023-02-14T18:56:12.010Z,95.20
2023-02-14T18:58:39.976Z,95.30
2023-02-14T19:01:10.504Z,95.20
2023-02-14T19:03:38.520Z,94.90
2023-02-14T19:06:06.511Z,94.80
2023-02-14T19:08:34.558Z,94.80
2023-02-14T19:11:02.228Z,94.60
2023-02-14T19:13:32.074Z,94.70
2023-02-14T19:15:59.953Z,94.80
2023-02-14T19:18:26.898Z,95.00
2023-02-14T19:20:53.640Z,95.10
2023-02-14T19:23:20.416Z,95.00
2023-02-14T19:25:47.094Z,95.00
2023-02-14T19:28:13.862Z,95.20
2023-02-14T19:30:40.826Z,95.30
2023-02-14T19:33:07.569Z,95.70
2023-02-14T19:35:34.332Z,95.40
2023-02-14T19:38:03.402Z,95.50
2023-02-14T19:40:30.963Z,95.50
2023-02-14T19:42:57.948Z,95.50
2023-02-14T19:45:27.280Z,95.50
2023-02-14T19:47:53.998Z,95.80
2023-02-14T19:50:23.671Z,95.90
2023-02-14T19:52:50.646Z,96.00
2023-02-14T19:55:21.682Z,96.10
2023-02-14T19:57:48.453Z,96.00
2023-02-14T20:00:20.953Z,96.10
2023-02-14T20:02:48.124Z,96.40
2023-02-14T20:05:19.420Z,96.60
2023-02-14T20:07:49.212Z,96.80
2023-02-14T20:10:16.353Z,96.80
2023-02-14T20:12:43.164Z,96.90
2023-02-14T20:15:11.036Z,96.80
2023-02-14T20:17:38.045Z,96.80
2023-02-14T20:20:06.505Z,96.90
2023-02-14T20:22:33.268Z,97.20
2023-02-14T20:25:05.960Z,97.10
2023-02-14T20:27:32.669Z,97.20
2023-02-14T20:29:59.497Z,97.20
2023-02-14T20:32:26.420Z,97.00
2023-02-14T20:34:53.285Z,97.20
2023-02-14T20:37:20.020Z,97.00
2023-02-14T20:39:46.801Z,97.00
2023-02-14T20:42:13.588Z,97.10
2023-02-14T20:44:41.492Z,97.10
2023-02-14T20:47:09.811Z,97.20
2023-02-14T20:49:36.704Z,97.10
2023-02-14T20:52:03.598Z,97.40
2023-02-14T20:54:30.410Z,97.40
2023-02-14T20:56:57.938Z,97.90
2023-02-14T20:59:28.768Z,98.00
2023-02-14T21:01:57.468Z,98.50
2023-02-14T21:04:25.337Z,98.50
2023-02-14T21:06:52.087Z,98.10
2023-02-14T21:09:23.547Z,97.80
2023-02-14T21:11:50.437Z,97.70
2023-02-14T21:14:17.381Z,97.60
2023-02-14T21:16:44.280Z,97.60
2023-02-14T21:19:13.504Z,97.50
2023-02-14T21:21:40.765Z,97.70
2023-02-14T21:24:12.678Z,97.90
2023-02-14T21:26:40.058Z,97.80
2023-02-14T21:29:07.845Z,97.50
2023-02-14T21:31:35.375Z,97.40
2023-02-14T21:34:02.913Z,97.50
2023-02-14T21:36:31.762Z,98.10
2023-02-14T21:38:59.762Z,98.20
2023-02-14T21:41:29.084Z,98.40
2023-02-14T21:43:57.400Z,99.10
2023-02-14T21:46:31.060Z,99.20
2023-02-14T21:49:21.327Z,99.40
2023-02-14T21:51:48.841Z,98.90
2023-02-14T21:54:16.319Z,98.50
2023-02-14T21:56:43.747Z,98.10
2023-02-14T21:59:10.885Z,97.90
2023-02-14T22:01:40.069Z,97.70
2023-02-14T22:04:09.095Z,97.60
2023-02-14T22:06:38.265Z,97.70
2023-02-14T22:09:05.493Z,97.60
2023-02-14T22:11:32.175Z,97.50
2023-02-14T22:13:59.674Z,97.40
2023-02-14T22:16:26.381Z,97.40
2023-02-14T22:18:53.065Z,97.30
2023-02-14T22:21:22.534Z,97.10
2023-02-14T22:23:49.458Z,97.20
2023-02-14T22:26:22.785Z,97.00
2023-02-14T22:28:51.134Z,97.00
2023-02-14T22:31:18.660Z,97.00
2023-02-14T22:33:46.608Z,97.20
2023-02-14T22:36:13.609Z,97.10
2023-02-14T22:38:40.404Z,97.20
2023-02-14T22:41:15.313Z,97.30
2023-02-14T22:43:42.922Z,97.10
2023-02-14T22:46:13.611Z,97.50
2023-02-14T22:48:40.945Z,97.40
2023-02-14T22:51:22.960Z,97.40
2023-02-14T22:53:51.699Z,97.30
2023-02-14T22:56:24.018Z,97.30
2023-02-14T22:58:59.052Z,97.50
2023-02-14T23:01:26.080Z,97.50
2023-02-14T23:03:54.584Z,97.90
2023-02-14T23:06:21.284Z,98.10
2023-02-14T23:08:48.486Z,98.10
2023-02-14T23:11:18.478Z,98.10
2023-02-14T23:14:04.306Z,98.10
2023-02-14T23:16:50.008Z,98.30
2023-02-14T23:19:40.801Z,98.20
2023-02-14T23:22:09.054Z,98.30
2023-02-14T23:24:35.814Z,98.80
2023-02-14T23:27:02.499Z,98.50
2023-02-14T23:29:29.729Z,98.70
2023-02-14T23:31:56.751Z,98.60
2023-02-14T23:34:28.823Z,98.50
2023-02-14T23:36:55.807Z,98.50
2023-02-14T23:39:23.129Z,98.60
2023-02-14T23:41:49.929Z,99.00
2023-02-14T23:44:24.839Z,99.10
2023-02-14T23:46:56.604Z,99.30
2023-02-14T23:49:24.629Z,99.40
2023-02-14T23:51:53.242Z,99.30
2023-02-14T23:54:21.344Z,99.30
2023-02-14T23:56:48.748Z,98.80
2023-02-14T23:59:16.454Z,98.50
